Airfield :
LOGIN :

Register | Disclaimer

   EN    FR    IT 

 










Legend :    VFR   Marginal VFR   IFR   Intensive IFR   Very Intensive IFR
Visi :
Ceiling :
>= 8 km
>= 3000ft
5 to 8 km
1000 to 3000 ft
1500m to 5 km
500 to 1000 ft
800 to 1500m
200 to 500 ft
< 800m
< 200 ft
Symbols :   Thunderstorms  Fog  Heavy snow  Heavy precipitations  Wind > 20 kt
SIGMETs :     Misc.  Thunderstorms  Icing  Turbulence  Mountain Waves  Volcanic Ashes






- Airport Elevation : 13 ft
- IATA code : LYX


EGMD - Lydd

CURRENT METAR :
  • 180050Z AUTO 35010KT 4100 BR BKN003/// OVC006/// 05/04 Q1012

EXPIRED METARs :
  • 180020Z AUTO 33005KT 4600 BR NCD 03/03 Q1012
  • 172350Z AUTO 30003KT 7000 NCD 04/03 Q1012
  • 172320Z AUTO 28005KT 9000 SCT048/// 04/03 Q1012
  • 172250Z AUTO 33010KT 9999 BKN049/// 06/04 Q1012
  • 172220Z AUTO 33006KT 9999 SCT046/// 05/04 Q1012

TAF AMD TAF EGMD
Valid from the 18 at 00:00 until the 18 at 09:00 UTC


180033Z 1800/1809 34008KT 8000 FEW045
BECMG 1800/1803 BKN008
PROB40
TEMPO 1800/1803 3000 BR BKN004
BECMG 1804/1807 9999 SCT015
TEMPO 1807/1809 34018G28KT
ATIS : +44 1797 322 422



MET'MAP, your aeronautical weather chart ! - Copyright ORBIFLY December 2007 - Disclaimer

ORBIFLY MET'MAP TEAM :

Programming & Development : Alexandra Zaïnal
Concept & Development : Baudouin d'Aumeries
Co-Development & Prog : Marc-Olivier Méhu
Technical & hardware support : Manuel Goepfert

Contact : metmap@orbifly.com




SOURCES & CREDITS :

   NOAA